createdAt,value
2022-09-15T00:01:13.787Z,82.80
2022-09-15T00:03:42.344Z,82.61
2022-09-15T00:06:11.097Z,82.40
2022-09-15T00:08:39.398Z,82.55
2022-09-15T00:11:11.087Z,82.33
2022-09-15T00:13:40.655Z,82.90
2022-09-15T00:16:12.563Z,82.51
2022-09-15T00:18:43.855Z,82.92
2022-09-15T00:21:15.378Z,82.32
2022-09-15T00:23:43.625Z,83.05
2022-09-15T00:26:16.422Z,82.20
2022-09-15T00:28:44.989Z,82.44
2022-09-15T00:31:15.591Z,82.66
2022-09-15T00:33:43.908Z,82.06
2022-09-15T00:36:14.242Z,82.57
2022-09-15T00:38:42.548Z,82.33
2022-09-15T00:41:13.914Z,82.72
2022-09-15T00:43:48.793Z,82.13
2022-09-15T00:46:18.715Z,82.47
2022-09-15T00:48:50.105Z,82.67
2022-09-15T00:51:24.182Z,82.50
2022-09-15T00:53:52.994Z,82.24
2022-09-15T00:56:23.382Z,82.12
2022-09-15T00:58:55.808Z,82.14
2022-09-15T01:01:26.968Z,81.81
2022-09-15T01:03:55.894Z,81.84
2022-09-15T01:06:32.308Z,81.50
2022-09-15T01:09:06.936Z,81.26
2022-09-15T01:11:36.579Z,81.58
2022-09-15T01:14:04.428Z,81.90
2022-09-15T01:16:43.184Z,81.66
2022-09-15T01:19:42.275Z,81.54
2022-09-15T01:22:28.896Z,80.95
2022-09-15T01:25:10.288Z,81.11
2022-09-15T01:28:19.247Z,81.63
2022-09-15T01:30:56.273Z,81.28
2022-09-15T01:33:31.283Z,81.64
2022-09-15T01:36:07.019Z,81.21
2022-09-15T01:38:41.451Z,81.09
2022-09-15T01:41:16.103Z,81.12
2022-09-15T01:43:51.543Z,81.09
2022-09-15T01:46:22.625Z,80.98
2022-09-15T01:48:53.358Z,81.31
2022-09-15T01:51:22.686Z,81.05
2022-09-15T01:53:52.640Z,81.05
2022-09-15T01:56:20.540Z,80.70
2022-09-15T01:58:51.449Z,80.89
2022-09-15T02:01:28.122Z,81.09
2022-09-15T02:04:00.670Z,80.62
2022-09-15T02:06:36.968Z,81.22
2022-09-15T02:09:12.815Z,81.17
2022-09-15T02:11:52.291Z,80.46
2022-09-15T02:14:35.359Z,80.79
2022-09-15T02:17:05.449Z,80.98
2022-09-15T02:19:37.275Z,81.20
2022-09-15T02:22:11.690Z,81.29
2022-09-15T02:24:43.378Z,81.54
2022-09-15T02:27:17.180Z,81.08
2022-09-15T02:29:48.741Z,81.52
2022-09-15T02:32:20.860Z,82.17
2022-09-15T02:34:51.979Z,81.38
2022-09-15T02:37:22.258Z,81.96
2022-09-15T02:39:57.972Z,81.79
2022-09-15T02:42:26.862Z,82.15
2022-09-15T02:44:54.975Z,82.21
2022-09-15T02:47:24.683Z,81.93
2022-09-15T02:49:52.992Z,82.29
2022-09-15T02:52:21.289Z,82.47
2022-09-15T02:54:50.393Z,82.56
2022-09-15T02:57:18.350Z,82.57
2022-09-15T03:00:18.045Z,82.86
2022-09-15T03:02:49.941Z,82.86
2022-09-15T03:05:20.140Z,83.14
2022-09-15T03:07:48.219Z,83.78
2022-09-15T03:10:16.357Z,83.92
2022-09-15T03:12:46.962Z,83.51
2022-09-15T03:15:17.606Z,83.92
2022-09-15T03:17:48.314Z,84.11
2022-09-15T03:20:20.022Z,84.69
2022-09-15T03:22:47.997Z,84.99
2022-09-15T03:25:15.798Z,85.89
2022-09-15T03:27:43.751Z,86.29
2022-09-15T03:30:13.701Z,87.18
2022-09-15T03:32:41.706Z,86.63
2022-09-15T03:35:11.675Z,87.08
2022-09-15T03:37:39.454Z,87.62
2022-09-15T03:40:09.245Z,87.00
2022-09-15T03:42:37.071Z,86.88
2022-09-15T03:45:05.400Z,87.51
2022-09-15T03:47:33.321Z,86.79
2022-09-15T03:50:01.080Z,87.51
2022-09-15T03:52:33.000Z,87.14
2022-09-15T03:55:00.822Z,86.97
2022-09-15T03:57:28.687Z,87.73
2022-09-15T03:59:56.621Z,88.07
2022-09-15T04:02:24.448Z,88.22
2022-09-15T04:04:52.232Z,88.52
2022-09-15T04:07:19.949Z,88.01
2022-09-15T04:09:49.296Z,88.30
2022-09-15T04:12:17.357Z,88.10
2022-09-15T04:14:45.102Z,87.95
2022-09-15T04:17:12.905Z,88.20
2022-09-15T04:19:40.713Z,88.01
2022-09-15T04:22:08.456Z,87.46
2022-09-15T04:24:36.300Z,87.80
2022-09-15T04:27:05.747Z,87.11
2022-09-15T04:29:33.494Z,87.27
2022-09-15T04:32:01.303Z,87.50
2022-09-15T04:34:29.110Z,87.88
2022-09-15T04:36:56.888Z,88.17
2022-09-15T04:39:25.497Z,88.53
2022-09-15T04:41:54.201Z,88.67
2022-09-15T04:44:23.451Z,89.41
2022-09-15T04:46:51.394Z,89.05
2022-09-15T04:49:19.349Z,89.27
2022-09-15T04:51:47.046Z,88.69
2022-09-15T04:54:14.916Z,89.27
2022-09-15T04:56:42.750Z,89.01
2022-09-15T04:59:15.505Z,89.09
2022-09-15T05:01:45.470Z,89.29
2022-09-15T05:04:13.528Z,89.65
2022-09-15T05:06:41.359Z,89.41
2022-09-15T05:09:10.599Z,90.01
2022-09-15T05:11:38.983Z,89.63
2022-09-15T05:14:06.930Z,89.69
2022-09-15T05:16:34.753Z,89.79
2022-09-15T05:19:04.886Z,89.45
2022-09-15T05:21:32.824Z,89.58
2022-09-15T05:24:00.868Z,89.88
2022-09-15T05:26:30.783Z,89.83
2022-09-15T05:28:58.753Z,89.78
2022-09-15T05:31:28.674Z,89.49
2022-09-15T05:33:56.598Z,89.43
2022-09-15T05:36:26.364Z,89.89
2022-09-15T05:38:56.435Z,90.05
2022-09-15T05:41:24.930Z,90.31
2022-09-15T05:43:54.385Z,90.04
2022-09-15T05:46:22.570Z,89.84
2022-09-15T05:48:50.465Z,89.80
2022-09-15T05:51:18.219Z,90.03
2022-09-15T05:53:47.266Z,89.88
2022-09-15T05:56:16.520Z,90.09
2022-09-15T05:58:46.793Z,90.27
2022-09-15T06:01:16.689Z,90.72
2022-09-15T06:03:44.981Z,90.51
2022-09-15T06:06:13.306Z,90.19
2022-09-15T06:08:44.446Z,90.63
2022-09-15T06:11:16.275Z,90.31
2022-09-15T06:13:44.639Z,90.09
2022-09-15T06:16:14.367Z,90.86
2022-09-15T06:18:42.926Z,91.27
2022-09-15T06:21:12.397Z,91.86
2022-09-15T06:23:40.704Z,91.67
2022-09-15T06:26:10.669Z,91.47
2022-09-15T06:28:42.106Z,92.15
2022-09-15T06:31:14.032Z,92.11
2022-09-15T06:33:44.186Z,91.90
2022-09-15T06:36:12.376Z,92.42
2022-09-15T06:38:40.732Z,91.60
2022-09-15T06:41:09.568Z,92.48
2022-09-15T06:43:39.422Z,92.69
2022-09-15T06:46:09.481Z,93.74
2022-09-15T06:48:37.891Z,93.14
2022-09-15T06:51:07.378Z,93.25
2022-09-15T06:53:38.072Z,93.40
2022-09-15T06:56:07.775Z,94.04
2022-09-15T06:58:36.739Z,94.40
2022-09-15T07:01:09.224Z,95.99
2022-09-15T07:03:38.115Z,95.53
2022-09-15T07:06:06.866Z,95.42
2022-09-15T07:08:36.549Z,95.36
2022-09-15T07:11:04.372Z,95.15
2022-09-15T07:13:32.488Z,94.70
2022-09-15T07:16:02.140Z,94.22
2022-09-15T07:18:32.004Z,94.11
2022-09-15T07:21:01.274Z,94.11
2022-09-15T07:23:29.450Z,92.81
2022-09-15T07:26:07.524Z,92.02
2022-09-15T07:28:35.868Z,92.33
2022-09-15T07:31:04.801Z,91.80
2022-09-15T07:33:34.946Z,92.36
2022-09-15T07:36:03.426Z,91.92
2022-09-15T07:38:31.575Z,91.67
2022-09-15T07:41:04.423Z,90.43
2022-09-15T07:43:32.241Z,90.04
2022-09-15T07:46:00.826Z,89.98
2022-09-15T07:48:29.424Z,89.99
2022-09-15T07:50:59.988Z,89.45
2022-09-15T07:53:29.402Z,88.99
2022-09-15T07:55:57.656Z,88.95
2022-09-15T07:58:25.832Z,88.76
2022-09-15T08:00:53.831Z,88.76
2022-09-15T08:03:21.630Z,88.44
2022-09-15T08:05:50.019Z,88.02
2022-09-15T08:08:19.284Z,87.87
2022-09-15T08:10:47.041Z,86.99
2022-09-15T08:13:14.903Z,87.05
2022-09-15T08:15:43.916Z,86.38
2022-09-15T08:18:12.279Z,86.15
2022-09-15T08:20:40.429Z,85.92
2022-09-15T08:23:08.310Z,85.76
2022-09-15T08:25:37.694Z,85.55
2022-09-15T08:28:05.908Z,83.73
2022-09-15T08:30:33.866Z,83.63
2022-09-15T08:33:01.606Z,83.69
2022-09-15T08:35:31.346Z,84.10
2022-09-15T08:37:59.350Z,84.25
2022-09-15T08:40:31.802Z,83.29
2022-09-15T08:43:07.363Z,83.14
2022-09-15T08:45:43.211Z,82.67
2022-09-15T08:48:25.309Z,80.15
2022-09-15T08:50:58.056Z,80.33
2022-09-15T08:53:30.979Z,79.49
2022-09-15T08:56:01.608Z,79.85
2022-09-15T08:58:32.559Z,79.26
2022-09-15T09:01:07.129Z,77.12
2022-09-15T09:03:48.691Z,75.54
2022-09-15T09:06:28.756Z,74.66
2022-09-15T09:09:19.029Z,73.86
2022-09-15T09:12:29.266Z,74.36
2022-09-15T09:15:20.248Z,72.80
2022-09-15T09:18:23.014Z,73.60
2022-09-15T09:20:59.845Z,73.75
2022-09-15T09:23:31.110Z,74.39
2022-09-15T09:26:00.560Z,74.51
2022-09-15T09:28:33.747Z,71.82
2022-09-15T09:31:07.177Z,71.79
2022-09-15T09:33:47.606Z,72.27
2022-09-15T09:36:16.176Z,73.54
2022-09-15T09:38:46.453Z,73.33
2022-09-15T09:41:18.093Z,73.18
2022-09-15T09:43:48.485Z,72.29
2022-09-15T09:46:20.288Z,72.29
2022-09-15T09:48:50.571Z,71.46
2022-09-15T09:51:39.880Z,69.51
2022-09-15T09:54:13.214Z,69.93
2022-09-15T09:56:41.308Z,69.73
2022-09-15T09:59:33.597Z,68.54
2022-09-15T10:02:16.805Z,69.04
2022-09-15T10:04:45.654Z,70.76
2022-09-15T10:07:15.416Z,71.06
2022-09-15T10:09:52.535Z,71.04
2022-09-15T10:12:29.257Z,70.99
2022-09-15T10:15:00.024Z,71.08
2022-09-15T10:17:40.749Z,70.66
2022-09-15T10:20:24.302Z,69.30
2022-09-15T10:22:52.530Z,70.19
2022-09-15T10:25:55.095Z,70.10
2022-09-15T10:28:23.258Z,70.03
2022-09-15T10:31:06.378Z,65.57
2022-09-15T10:33:36.701Z,68.15
2022-09-15T10:36:08.321Z,67.45
2022-09-15T10:38:43.721Z,67.27
2022-09-15T10:41:32.207Z,67.26
2022-09-15T10:44:27.398Z,67.60
2022-09-15T10:47:04.174Z,67.18
2022-09-15T10:49:49.362Z,67.92
2022-09-15T10:52:26.311Z,67.61
2022-09-15T10:55:27.794Z,68.63
2022-09-15T10:58:29.821Z,68.39
2022-09-15T11:01:10.536Z,68.69
2022-09-15T11:04:04.608Z,68.92
2022-09-15T11:06:40.331Z,69.75
2022-09-15T11:09:18.060Z,70.31
2022-09-15T11:11:54.703Z,70.55
2022-09-15T11:14:38.014Z,71.12
2022-09-15T11:17:20.696Z,71.49
2022-09-15T11:20:01.849Z,72.26
2022-09-15T11:22:35.762Z,73.19
2022-09-15T11:25:13.024Z,73.84
2022-09-15T11:27:43.613Z,73.99
2022-09-15T11:30:18.475Z,74.09
2022-09-15T11:32:52.966Z,74.71
2022-09-15T11:35:43.680Z,74.21
2022-09-15T11:38:22.812Z,74.08
2022-09-15T11:40:58.085Z,73.79
2022-09-15T11:43:33.977Z,73.71
2022-09-15T11:46:08.975Z,73.71
2022-09-15T11:48:43.986Z,72.59
2022-09-15T11:51:17.182Z,72.43
2022-09-15T11:53:52.914Z,71.62
2022-09-15T11:56:26.129Z,72.36
2022-09-15T11:59:05.630Z,71.70
2022-09-15T12:01:46.705Z,70.70
2022-09-15T12:04:21.517Z,68.83
2022-09-15T12:06:55.177Z,69.84
2022-09-15T12:09:24.819Z,69.30
2022-09-15T12:11:56.538Z,68.29
2022-09-15T12:14:31.800Z,68.37
2022-09-15T12:17:00.224Z,69.17
2022-09-15T12:19:45.832Z,66.92
2022-09-15T12:22:20.404Z,67.56
2022-09-15T12:25:00.783Z,67.36
2022-09-15T12:27:29.427Z,68.06
2022-09-15T12:29:59.667Z,67.80
2022-09-15T12:32:28.982Z,67.90
2022-09-15T12:34:59.297Z,67.90
2022-09-15T12:37:30.766Z,67.47
2022-09-15T12:40:00.021Z,67.99
2022-09-15T12:42:31.386Z,68.35
2022-09-15T12:45:01.695Z,67.38
2022-09-15T12:47:33.483Z,67.26
2022-09-15T12:50:24.202Z,67.14
2022-09-15T12:52:54.340Z,67.52
2022-09-15T12:55:26.838Z,67.26
2022-09-15T12:57:57.203Z,68.25
2022-09-15T13:00:49.886Z,65.86
2022-09-15T13:03:49.918Z,66.54
2022-09-15T13:06:21.325Z,66.20
2022-09-15T13:09:16.489Z,66.42
2022-09-15T13:11:51.177Z,66.57
2022-09-15T13:14:28.001Z,67.14
2022-09-15T13:17:00.971Z,67.39
2022-09-15T13:19:41.104Z,67.66
2022-09-15T13:22:19.903Z,67.53
2022-09-15T13:24:51.727Z,68.57
2022-09-15T13:27:24.337Z,67.88
2022-09-15T13:29:59.275Z,67.59
2022-09-15T13:32:37.217Z,66.67
2022-09-15T13:35:38.865Z,66.52
2022-09-15T13:38:32.491Z,66.56
2022-09-15T13:41:26.566Z,66.75
2022-09-15T13:44:29.570Z,65.85
2022-09-15T13:47:14.275Z,65.34
2022-09-15T13:49:56.972Z,65.52
2022-09-15T13:52:49.880Z,64.24
2022-09-15T13:55:23.229Z,65.15
2022-09-15T14:00:54.269Z,64.64
2022-09-15T14:03:25.963Z,65.55
2022-09-15T14:05:54.859Z,65.63
2022-09-15T14:08:26.145Z,65.51
2022-09-15T14:11:01.433Z,65.00
2022-09-15T14:13:31.397Z,65.65
2022-09-15T14:16:03.450Z,64.64
2022-09-15T14:18:32.220Z,64.97
2022-09-15T14:21:02.344Z,64.75
2022-09-15T14:23:30.966Z,64.83
2022-09-15T14:26:01.371Z,65.01
2022-09-15T14:28:32.300Z,63.97
2022-09-15T14:31:02.844Z,64.23
2022-09-15T14:33:38.126Z,63.95
2022-09-15T14:36:14.840Z,64.36
2022-09-15T14:38:45.228Z,65.34
2022-09-15T14:41:20.437Z,65.20
2022-09-15T14:43:48.323Z,64.56
2022-09-15T14:46:20.741Z,64.38
2022-09-15T14:48:48.652Z,65.16
2022-09-15T14:51:28.662Z,65.42
2022-09-15T14:54:00.002Z,65.48
2022-09-15T14:56:31.967Z,65.90
2022-09-15T14:59:04.452Z,66.19
2022-09-15T15:01:37.713Z,66.44
2022-09-15T15:04:12.205Z,65.91
2022-09-15T15:06:45.094Z,65.54
2022-09-15T15:09:22.514Z,64.80
2022-09-15T15:11:54.276Z,65.83
2022-09-15T15:17:05.837Z,64.80
2022-09-15T15:19:36.621Z,64.20
2022-09-15T15:22:09.742Z,63.61
2022-09-15T15:24:42.469Z,63.26
2022-09-15T15:27:43.112Z,63.39
2022-09-15T15:30:45.044Z,63.27
2022-09-15T15:33:24.214Z,63.58
2022-09-15T15:36:06.209Z,63.84
2022-09-15T15:38:46.388Z,63.55
2022-09-15T15:41:22.549Z,63.42
2022-09-15T15:43:58.635Z,63.83
2022-09-15T15:46:45.846Z,63.62
2022-09-15T15:49:15.147Z,64.57
2022-09-15T15:51:43.930Z,64.31
2022-09-15T15:54:11.974Z,64.37
2022-09-15T15:56:40.033Z,64.15
2022-09-15T15:59:07.854Z,64.10
2022-09-15T16:01:35.636Z,63.52
2022-09-15T16:04:03.970Z,63.66
2022-09-15T16:06:33.567Z,63.00
2022-09-15T16:09:03.317Z,62.22
2022-09-15T16:11:31.159Z,62.07
2022-09-15T16:13:59.516Z,61.88
2022-09-15T16:16:29.431Z,61.42
2022-09-15T16:18:57.250Z,60.59
2022-09-15T16:21:31.634Z,60.66
2022-09-15T16:24:00.765Z,60.61
2022-09-15T16:26:28.598Z,60.05
2022-09-15T16:28:56.303Z,58.50
2022-09-15T16:31:24.002Z,57.00
2022-09-15T16:33:51.999Z,56.09
2022-09-15T16:36:19.843Z,55.48
2022-09-15T16:38:47.676Z,56.23
2022-09-15T16:41:19.668Z,56.45
2022-09-15T16:43:48.287Z,57.03
2022-09-15T16:46:17.084Z,57.09
2022-09-15T16:48:47.127Z,56.96
2022-09-15T16:51:26.715Z,56.78
2022-09-15T16:53:56.812Z,56.89
2022-09-15T16:56:26.284Z,57.21
2022-09-15T16:59:00.289Z,57.74
2022-09-15T17:01:28.715Z,57.84
2022-09-15T17:03:56.591Z,57.95
2022-09-15T17:06:24.722Z,58.11
2022-09-15T17:08:52.524Z,58.25
2022-09-15T17:11:23.771Z,58.49
2022-09-15T17:13:55.419Z,58.59
2022-09-15T17:16:23.279Z,58.85
2022-09-15T17:18:51.187Z,59.62
2022-09-15T17:21:19.728Z,60.09
2022-09-15T17:23:49.269Z,60.53
2022-09-15T17:26:19.763Z,60.92
2022-09-15T17:28:47.912Z,60.83
2022-09-15T17:31:20.289Z,60.87
2022-09-15T17:33:49.609Z,61.50
2022-09-15T17:36:18.194Z,61.70
2022-09-15T17:38:47.990Z,61.77
2022-09-15T17:41:16.891Z,62.19
2022-09-15T17:43:44.638Z,62.31
2022-09-15T17:46:12.565Z,62.89
2022-09-15T17:48:41.866Z,62.67
2022-09-15T17:51:15.252Z,62.79
2022-09-15T17:53:45.200Z,63.02
2022-09-15T17:56:13.128Z,63.14
2022-09-15T17:58:41.479Z,62.72
2022-09-15T18:01:10.731Z,63.05
2022-09-15T18:03:38.678Z,62.81
2022-09-15T18:06:09.669Z,62.71
2022-09-15T18:08:38.197Z,63.39
2022-09-15T18:11:07.301Z,63.50
2022-09-15T18:13:35.351Z,63.58
2022-09-15T18:16:06.689Z,63.85
2022-09-15T18:18:34.787Z,63.62
2022-09-15T18:21:02.897Z,63.87
2022-09-15T18:23:32.081Z,63.53
2022-09-15T18:25:59.955Z,63.92
2022-09-15T18:28:28.006Z,63.46
2022-09-15T18:30:56.714Z,63.69
2022-09-15T18:33:26.639Z,63.94
2022-09-15T18:35:57.078Z,63.83
2022-09-15T18:38:24.829Z,64.12
2022-09-15T18:40:56.202Z,63.74
2022-09-15T18:43:26.496Z,64.02
2022-09-15T18:45:58.476Z,64.84
2022-09-15T18:48:26.285Z,64.71
2022-09-15T18:50:54.129Z,64.49
2022-09-15T18:53:21.932Z,64.95
2022-09-15T18:55:49.707Z,65.35
2022-09-15T18:58:19.230Z,65.63
2022-09-15T19:00:48.405Z,65.41
2022-09-15T19:03:16.181Z,66.05
2022-09-15T19:05:45.721Z,65.94
2022-09-15T19:08:13.523Z,66.40
2022-09-15T19:10:44.073Z,66.32
2022-09-15T19:13:14.031Z,66.31
2022-09-15T19:15:43.965Z,66.36
2022-09-15T19:18:12.009Z,66.50
2022-09-15T19:20:40.213Z,66.95
2022-09-15T19:23:07.983Z,66.32
2022-09-15T19:25:35.869Z,66.89
2022-09-15T19:28:04.685Z,67.09
2022-09-15T19:30:32.507Z,67.12
2022-09-15T19:33:02.646Z,67.13
2022-09-15T19:35:30.785Z,67.27
2022-09-15T19:37:58.573Z,67.29
2022-09-15T19:40:26.782Z,67.46
2022-09-15T19:42:54.753Z,67.87
2022-09-15T19:45:22.528Z,68.08
2022-09-15T19:47:50.250Z,68.28
2022-09-15T19:50:19.569Z,68.15
2022-09-15T19:52:47.408Z,68.23
2022-09-15T19:55:15.180Z,68.77
2022-09-15T19:57:43.725Z,68.63
2022-09-15T20:00:14.463Z,69.19
2022-09-15T20:02:44.889Z,69.20
2022-09-15T20:05:12.667Z,68.95
2022-09-15T20:07:41.764Z,69.56
2022-09-15T20:10:09.488Z,69.71
2022-09-15T20:12:37.250Z,69.76
2022-09-15T20:15:05.908Z,69.97
2022-09-15T20:17:33.978Z,70.16
2022-09-15T20:20:01.818Z,69.98
2022-09-15T20:22:29.637Z,70.25
2022-09-15T20:24:58.690Z,69.89
2022-09-15T20:27:26.426Z,70.34
2022-09-15T20:29:54.123Z,70.31
2022-09-15T20:32:27.535Z,70.20
2022-09-15T20:34:56.397Z,70.17
2022-09-15T20:37:24.208Z,70.73
2022-09-15T20:39:52.455Z,70.72
2022-09-15T20:42:21.588Z,71.02
2022-09-15T20:44:49.319Z,71.39
2022-09-15T20:47:17.119Z,71.66
2022-09-15T20:49:44.895Z,71.37
2022-09-15T20:52:12.689Z,71.63
2022-09-15T20:54:40.641Z,71.55
2022-09-15T20:57:09.387Z,71.69
2022-09-15T20:59:38.743Z,72.20
2022-09-15T21:02:07.423Z,71.99
2022-09-15T21:04:35.380Z,72.21
2022-09-15T21:07:03.144Z,71.84
2022-09-15T21:09:30.866Z,72.56
2022-09-15T21:11:58.624Z,72.17
2022-09-15T21:14:26.734Z,72.51
2022-09-15T21:16:55.895Z,72.17
2022-09-15T21:19:23.701Z,72.33
2022-09-15T21:21:51.676Z,72.70
2022-09-15T21:24:19.468Z,72.06
2022-09-15T21:27:04.600Z,72.39
2022-09-15T21:29:32.362Z,72.18
2022-09-15T21:32:01.530Z,72.54
2022-09-15T21:34:29.329Z,72.38
2022-09-15T21:36:57.918Z,72.74
2022-09-15T21:39:25.741Z,72.44
2022-09-15T21:41:54.106Z,72.46
2022-09-15T21:44:23.989Z,72.95
2022-09-15T21:46:52.670Z,72.11
2022-09-15T21:49:21.802Z,72.67
2022-09-15T21:51:49.534Z,72.90
2022-09-15T21:54:17.838Z,72.86
2022-09-15T21:56:45.649Z,73.04
2022-09-15T21:59:13.532Z,72.70
2022-09-15T22:01:41.841Z,73.36
2022-09-15T22:04:11.492Z,73.25
2022-09-15T22:06:41.760Z,73.76
2022-09-15T22:09:11.681Z,73.31
2022-09-15T22:11:39.814Z,74.01
2022-09-15T22:14:08.999Z,73.85
2022-09-15T22:16:38.383Z,74.06
2022-09-15T22:19:06.847Z,73.50
2022-09-15T22:21:36.880Z,73.68
2022-09-15T22:24:07.871Z,74.22
2022-09-15T22:26:37.943Z,74.40
2022-09-15T22:29:06.850Z,74.94
2022-09-15T22:31:35.601Z,75.26
2022-09-15T22:34:03.871Z,75.08
2022-09-15T22:36:32.659Z,75.13
2022-09-15T22:39:04.671Z,75.06
2022-09-15T22:41:36.187Z,75.07
2022-09-15T22:44:04.645Z,74.71
2022-09-15T22:46:33.509Z,75.45
2022-09-15T22:49:01.784Z,75.47
2022-09-15T22:51:29.689Z,74.80
2022-09-15T22:53:58.492Z,75.70
2022-09-15T22:56:27.723Z,75.36
2022-09-15T22:58:57.601Z,75.23
2022-09-15T23:01:27.420Z,75.44
2022-09-15T23:03:56.590Z,75.51
2022-09-15T23:06:25.349Z,75.73
2022-09-15T23:08:54.049Z,75.79
2022-09-15T23:11:22.263Z,75.31
2022-09-15T23:13:50.165Z,75.90
2022-09-15T23:16:19.561Z,76.01
2022-09-15T23:18:48.351Z,75.74
2022-09-15T23:21:16.490Z,75.67
2022-09-15T23:23:48.819Z,75.77
2022-09-15T23:26:18.887Z,75.68
2022-09-15T23:28:46.641Z,75.82
2022-09-15T23:31:14.887Z,76.25
2022-09-15T23:33:44.357Z,76.70
2022-09-15T23:36:14.790Z,76.59
2022-09-15T23:38:44.379Z,76.57
2022-09-15T23:41:13.438Z,76.74
2022-09-15T23:43:41.472Z,76.96
2022-09-15T23:46:09.478Z,76.65
2022-09-15T23:48:37.565Z,77.09
2022-09-15T23:51:06.988Z,77.12
2022-09-15T23:53:34.780Z,77.01
2022-09-15T23:56:03.205Z,77.10
2022-09-15T23:58:30.976Z,76.76
